createdAt,value
2017-11-13T00:02:20.935Z,89.60
2017-11-13T00:04:51.703Z,89.70
2017-11-13T00:07:25.375Z,89.60
2017-11-13T00:09:54.227Z,89.60
2017-11-13T00:12:22.258Z,89.60
2017-11-13T00:14:52.251Z,89.70
2017-11-13T00:17:22.079Z,90.10
2017-11-13T00:19:50.151Z,89.60
2017-11-13T00:22:18.191Z,89.60
2017-11-13T00:24:48.198Z,89.70
2017-11-13T00:27:17.230Z,89.70
2017-11-13T00:29:45.255Z,89.70
2017-11-13T00:32:16.615Z,89.70
2017-11-13T00:34:44.651Z,89.80
2017-11-13T00:37:19.730Z,89.70
2017-11-13T00:39:49.523Z,89.80
2017-11-13T00:42:29.294Z,89.80
2017-11-13T00:44:59.999Z,89.80
2017-11-13T00:47:33.098Z,89.80
2017-11-13T00:50:02.097Z,89.80
2017-11-13T00:52:31.079Z,89.80
2017-11-13T00:55:01.137Z,89.90
2017-11-13T00:57:30.090Z,89.90
2017-11-13T00:59:58.122Z,89.90
2017-11-13T01:02:28.903Z,89.80
2017-11-13T01:04:59.662Z,89.70
2017-11-13T01:07:32.634Z,89.70
2017-11-13T01:10:04.494Z,89.90
2017-11-13T01:12:32.594Z,89.80
2017-11-13T01:15:00.662Z,89.90
2017-11-13T01:17:28.700Z,89.80
2017-11-13T01:20:00.934Z,89.90
2017-11-13T01:22:29.958Z,89.80
2017-11-13T01:24:59.159Z,89.90
2017-11-13T01:27:27.274Z,89.80
2017-11-13T01:30:07.767Z,89.80
2017-11-13T01:32:36.806Z,89.90
2017-11-13T01:35:06.802Z,89.90
2017-11-13T01:37:36.530Z,89.90
2017-11-13T01:40:08.254Z,89.90
2017-11-13T01:42:36.306Z,89.90
2017-11-13T01:45:04.338Z,89.90
2017-11-13T01:47:33.278Z,89.90
2017-11-13T01:50:03.338Z,90.00
2017-11-13T01:52:33.322Z,90.00
2017-11-13T01:55:04.066Z,90.00
2017-11-13T01:57:33.901Z,89.90
2017-11-13T02:00:01.920Z,89.90
2017-11-13T02:02:41.438Z,89.90
2017-11-13T02:05:10.462Z,89.90
2017-11-13T02:07:38.541Z,89.80
2017-11-13T02:10:06.582Z,89.90
2017-11-13T02:12:38.418Z,89.90
2017-11-13T02:15:07.482Z,89.90
2017-11-13T02:17:36.469Z,89.90
2017-11-13T02:20:07.250Z,89.90
2017-11-13T02:22:37.325Z,89.90
2017-11-13T02:25:09.350Z,89.80
2017-11-13T02:27:39.389Z,89.80
2017-11-13T02:30:10.378Z,89.80
2017-11-13T02:32:48.323Z,89.70
2017-11-13T02:35:16.378Z,89.80
2017-11-13T02:37:48.897Z,89.70
2017-11-13T02:40:18.932Z,89.60
2017-11-13T02:42:51.858Z,89.60
2017-11-13T02:45:19.925Z,89.50
2017-11-13T02:47:52.225Z,89.40
2017-11-13T02:50:24.913Z,89.50
2017-11-13T02:52:54.927Z,89.50
2017-11-13T02:55:23.719Z,89.70
2017-11-13T02:58:02.299Z,89.50
2017-11-13T03:00:33.558Z,89.70
2017-11-13T03:03:01.613Z,89.60
2017-11-13T03:05:29.697Z,89.60
2017-11-13T03:08:06.989Z,89.80
2017-11-13T03:10:35.814Z,89.80
2017-11-13T03:13:03.853Z,89.70
2017-11-13T03:15:33.661Z,90.00
2017-11-13T03:18:02.690Z,89.90
2017-11-13T03:20:34.029Z,90.10
2017-11-13T03:23:08.605Z,90.00
2017-11-13T03:25:42.549Z,90.00
2017-11-13T03:28:20.929Z,90.00
2017-11-13T03:30:52.182Z,90.00
2017-11-13T03:33:26.490Z,90.00
2017-11-13T03:35:54.533Z,89.90
2017-11-13T03:38:26.393Z,89.90
2017-11-13T03:40:56.401Z,89.80
2017-11-13T03:43:26.385Z,89.90
2017-11-13T03:45:54.425Z,89.90
2017-11-13T03:48:25.937Z,89.80
2017-11-13T03:50:56.173Z,89.80
2017-11-13T03:53:30.858Z,89.70
2017-11-13T03:55:58.985Z,89.60
2017-11-13T03:58:32.013Z,89.60
2017-11-13T04:01:00.049Z,89.60
2017-11-13T04:03:34.837Z,89.60
2017-11-13T04:06:02.872Z,89.50
2017-11-13T04:08:35.373Z,89.50
2017-11-13T04:11:06.353Z,89.40
2017-11-13T04:13:34.433Z,89.40
2017-11-13T04:16:04.457Z,89.40
2017-11-13T04:18:33.517Z,89.30
2017-11-13T04:21:02.605Z,89.90
2017-11-13T04:23:31.647Z,89.40
2017-11-13T04:26:10.328Z,89.20
2017-11-13T04:28:44.337Z,89.00
2017-11-13T04:31:16.328Z,88.30
2017-11-13T04:33:44.361Z,88.40
2017-11-13T04:36:17.100Z,89.20
2017-11-13T04:38:48.965Z,88.90
2017-11-13T04:41:18.987Z,88.90
2017-11-13T04:43:51.548Z,89.00
2017-11-13T04:46:26.240Z,88.90
2017-11-13T04:48:55.289Z,89.10
2017-11-13T04:51:24.233Z,89.10
2017-11-13T04:53:53.224Z,89.20
2017-11-13T04:56:22.224Z,89.20
2017-11-13T04:59:00.316Z,89.10
2017-11-13T05:01:28.356Z,89.30
2017-11-13T05:03:56.391Z,89.30
2017-11-13T05:06:30.784Z,89.20
2017-11-13T05:09:01.816Z,89.20
2017-11-13T05:11:30.884Z,89.30
2017-11-13T05:14:02.593Z,89.20
2017-11-13T05:16:33.308Z,89.30
2017-11-13T05:19:09.264Z,89.30
2017-11-13T05:21:37.323Z,89.30
2017-11-13T05:24:11.324Z,89.20
2017-11-13T05:26:41.389Z,89.20
2017-11-13T05:29:11.376Z,89.20
2017-11-13T05:31:47.512Z,89.20
2017-11-13T05:34:23.244Z,89.20
2017-11-13T05:36:52.291Z,89.10
2017-11-13T05:39:26.872Z,89.10
2017-11-13T05:42:00.789Z,89.70
2017-11-13T05:44:43.973Z,89.10
2017-11-13T05:47:21.720Z,89.10
2017-11-13T05:49:50.724Z,89.30
2017-11-13T05:52:18.824Z,89.30
2017-11-13T05:54:46.896Z,89.30
2017-11-13T05:57:15.868Z,89.20
2017-11-13T05:59:50.587Z,89.20
2017-11-13T06:02:19.564Z,89.10
2017-11-13T06:04:52.667Z,89.20
2017-11-13T06:07:21.644Z,89.20
2017-11-13T06:09:50.852Z,89.30
2017-11-13T06:12:20.905Z,89.30
2017-11-13T06:14:48.944Z,89.30
2017-11-13T06:17:22.948Z,89.30
2017-11-13T06:19:51.937Z,89.20
2017-11-13T06:22:27.773Z,90.00
2017-11-13T06:25:13.104Z,89.30
2017-11-13T06:27:48.085Z,89.30
2017-11-13T06:30:17.004Z,89.40
2017-11-13T06:32:49.460Z,89.30
2017-11-13T06:35:18.453Z,89.20
2017-11-13T06:37:50.312Z,89.30
2017-11-13T06:40:18.356Z,89.40
2017-11-13T06:42:47.376Z,89.40
2017-11-13T06:45:18.860Z,89.30
2017-11-13T06:47:46.892Z,89.30
2017-11-13T06:50:14.928Z,89.30
2017-11-13T06:52:42.972Z,89.20
2017-11-13T06:55:11.012Z,89.20
2017-11-13T06:57:39.987Z,89.10
2017-11-13T07:00:08.027Z,89.60
2017-11-13T07:02:36.054Z,89.10
2017-11-13T07:05:05.840Z,89.00
2017-11-13T07:07:33.894Z,88.90
2017-11-13T07:10:01.923Z,89.00
2017-11-13T07:12:29.940Z,88.80
2017-11-13T07:14:58.952Z,88.70
2017-11-13T07:17:31.616Z,88.70
2017-11-13T07:20:02.807Z,88.70
2017-11-13T07:22:30.831Z,88.90
2017-11-13T07:24:59.838Z,88.80
2017-11-13T07:27:28.819Z,88.60
2017-11-13T07:29:56.848Z,88.70
2017-11-13T07:32:24.875Z,88.80
2017-11-13T07:34:58.072Z,88.70
2017-11-13T07:37:27.056Z,88.70
2017-11-13T07:39:59.631Z,88.60
2017-11-13T07:42:27.666Z,88.20
2017-11-13T07:44:55.686Z,88.20
2017-11-13T07:47:24.619Z,88.20
2017-11-13T07:49:54.536Z,88.10
2017-11-13T07:52:22.573Z,88.00
2017-11-13T07:54:50.612Z,88.10
2017-11-13T07:57:18.639Z,88.20
2017-11-13T07:59:52.379Z,88.10
2017-11-13T08:02:21.359Z,88.20
2017-11-13T08:04:50.346Z,88.00
2017-11-13T08:07:18.382Z,87.70
2017-11-13T08:09:47.316Z,87.50
2017-11-13T08:12:15.335Z,86.90
2017-11-13T08:14:43.371Z,86.80
2017-11-13T08:17:11.367Z,87.10
2017-11-13T08:19:41.283Z,87.10
2017-11-13T08:22:10.254Z,87.00
2017-11-13T08:24:39.039Z,86.00
2017-11-13T08:27:08.832Z,86.70
2017-11-13T08:29:36.884Z,86.10
2017-11-13T08:32:12.518Z,85.80
2017-11-13T08:34:42.467Z,84.90
2017-11-13T08:37:10.503Z,85.00
2017-11-13T08:39:40.439Z,85.10
2017-11-13T08:42:08.481Z,84.60
2017-11-13T08:44:36.507Z,84.20
2017-11-13T08:47:05.420Z,84.70
2017-11-13T08:49:35.383Z,84.30
2017-11-13T08:52:06.843Z,84.50
2017-11-13T08:54:34.879Z,85.20
2017-11-13T08:57:02.902Z,84.70
2017-11-13T08:59:31.690Z,83.90
2017-11-13T09:02:00.495Z,84.10
2017-11-13T09:04:28.518Z,84.10
2017-11-13T09:07:03.143Z,84.50
2017-11-13T09:09:31.903Z,84.30
2017-11-13T09:12:04.454Z,84.10
2017-11-13T09:14:32.479Z,82.80
2017-11-13T09:17:01.399Z,82.00
2017-11-13T09:19:31.099Z,81.90
2017-11-13T09:22:00.074Z,81.80
2017-11-13T09:24:29.930Z,80.50
2017-11-13T09:26:57.979Z,81.10
2017-11-13T09:29:26.762Z,80.10
2017-11-13T09:31:59.220Z,79.10
2017-11-13T09:34:32.831Z,79.00
2017-11-13T09:37:02.250Z,78.50
2017-11-13T09:39:31.819Z,78.60
2017-11-13T09:42:01.754Z,78.50
2017-11-13T09:44:31.680Z,79.20
2017-11-13T09:47:01.470Z,78.30
2017-11-13T09:49:34.962Z,78.20
2017-11-13T09:52:05.004Z,79.00
2017-11-13T09:54:35.673Z,79.60
2017-11-13T09:57:07.814Z,79.50
2017-11-13T09:59:36.610Z,79.10
2017-11-13T10:02:05.550Z,79.10
2017-11-13T10:04:34.459Z,78.60
2017-11-13T10:07:03.439Z,78.90
2017-11-13T10:09:31.450Z,76.10
2017-11-13T10:12:01.251Z,63.20
2017-11-13T10:14:30.041Z,57.20
2017-11-13T10:16:59.818Z,55.30
2017-11-13T10:19:29.833Z,55.30
2017-11-13T10:21:58.933Z,60.60
2017-11-13T10:24:27.929Z,63.10
2017-11-13T10:26:59.589Z,67.20
2017-11-13T10:29:33.109Z,70.10
2017-11-13T10:32:01.925Z,71.70
2017-11-13T10:34:33.102Z,71.70
2017-11-13T10:37:04.058Z,73.80
2017-11-13T10:39:35.813Z,68.40
2017-11-13T10:42:03.853Z,57.50
2017-11-13T10:44:35.429Z,56.30
2017-11-13T10:47:03.461Z,58.80
2017-11-13T10:49:33.137Z,59.50
2017-11-13T10:52:02.061Z,56.40
2017-11-13T10:54:33.725Z,56.30
2017-11-13T10:57:02.649Z,53.90
2017-11-13T10:59:30.669Z,58.00
2017-11-13T11:01:58.701Z,59.90
2017-11-13T11:04:27.485Z,55.90
2017-11-13T11:06:55.510Z,55.40
2017-11-13T11:09:23.549Z,55.30
2017-11-13T11:11:52.502Z,54.30
2017-11-13T11:14:20.950Z,53.60
2017-11-13T11:17:05.754Z,57.60
2017-11-13T11:19:36.374Z,60.80
2017-11-13T11:22:11.917Z,61.00
2017-11-13T11:24:40.823Z,59.70
2017-11-13T11:27:12.381Z,56.10
2017-11-13T11:29:45.046Z,52.10
2017-11-13T11:32:18.697Z,52.00
2017-11-13T11:37:57.086Z,51.10
2017-11-13T11:40:26.513Z,52.10
2017-11-13T11:42:54.545Z,51.30
2017-11-13T11:45:25.525Z,52.00
2017-11-13T11:48:06.281Z,54.70
2017-11-13T11:50:35.965Z,58.00
2017-11-13T11:53:05.974Z,58.00
2017-11-13T11:55:35.833Z,54.60
2017-11-13T11:58:03.853Z,54.60
2017-11-13T12:00:34.905Z,52.10
2017-11-13T12:03:03.161Z,48.90
2017-11-13T12:05:36.815Z,49.40
2017-11-13T12:08:06.549Z,48.30
2017-11-13T12:10:34.585Z,48.50
2017-11-13T12:13:02.641Z,47.60
2017-11-13T12:15:30.672Z,49.10
2017-11-13T12:18:03.205Z,49.10
2017-11-13T12:20:36.162Z,49.00
2017-11-13T12:23:04.185Z,52.80
2017-11-13T12:25:33.106Z,56.80
2017-11-13T12:28:05.833Z,60.80
2017-11-13T12:30:35.597Z,62.00
2017-11-13T12:33:04.513Z,62.00
2017-11-13T12:35:33.444Z,61.20
2017-11-13T12:38:07.190Z,61.90
2017-11-13T12:40:35.217Z,61.20
2017-11-13T12:43:03.237Z,54.40
2017-11-13T12:45:35.713Z,53.70
2017-11-13T12:48:03.746Z,56.90
2017-11-13T12:50:32.762Z,59.50
2017-11-13T12:53:00.807Z,57.40
2017-11-13T12:55:33.105Z,53.20
2017-11-13T12:58:02.046Z,53.80
2017-11-13T13:00:30.969Z,52.90
2017-11-13T13:02:59.990Z,49.60
2017-11-13T13:05:28.913Z,48.10
2017-11-13T13:07:56.935Z,48.60
2017-11-13T13:10:33.198Z,46.90
2017-11-13T13:13:04.350Z,44.20
2017-11-13T13:15:36.319Z,47.60
2017-11-13T13:18:07.094Z,46.20
2017-11-13T13:20:36.277Z,46.20
2017-11-13T13:23:04.309Z,46.00
2017-11-13T13:25:32.358Z,45.00
2017-11-13T13:28:02.426Z,42.10
2017-11-13T13:30:32.109Z,46.80
2017-11-13T13:33:00.137Z,46.80
2017-11-13T13:35:29.086Z,54.70
2017-11-13T13:37:57.254Z,58.50
2017-11-13T13:40:25.273Z,61.40
2017-11-13T13:42:54.217Z,62.80
2017-11-13T13:45:24.218Z,63.50
2017-11-13T13:47:53.133Z,64.80
2017-11-13T13:50:25.795Z,66.50
2017-11-13T13:52:57.441Z,67.20
2017-11-13T13:55:25.458Z,68.40
2017-11-13T13:57:56.881Z,69.10
2017-11-13T14:00:25.678Z,69.20
2017-11-13T14:02:54.469Z,69.30
2017-11-13T14:05:27.042Z,69.50
2017-11-13T14:07:57.381Z,69.40
2017-11-13T14:10:26.318Z,69.00
2017-11-13T14:12:55.249Z,68.90
2017-11-13T14:15:28.209Z,73.70
2017-11-13T14:17:56.222Z,73.70
2017-11-13T14:20:27.157Z,75.40
2017-11-13T14:22:55.173Z,77.10
2017-11-13T14:25:23.196Z,77.50
2017-11-13T14:27:51.229Z,77.20
2017-11-13T14:30:20.140Z,78.20
2017-11-13T14:32:51.768Z,78.30
2017-11-13T14:35:26.189Z,79.00
2017-11-13T14:37:54.209Z,79.40
2017-11-13T14:40:22.216Z,79.40
2017-11-13T14:42:50.249Z,79.50
2017-11-13T14:45:23.372Z,78.90
2017-11-13T14:47:51.423Z,78.90
2017-11-13T14:50:20.438Z,78.80
2017-11-13T14:52:48.454Z,78.50
2017-11-13T14:55:17.264Z,79.80
2017-11-13T14:57:45.285Z,79.20
2017-11-13T15:00:23.349Z,79.40
2017-11-13T15:02:51.387Z,79.60
2017-11-13T15:05:20.160Z,80.30
2017-11-13T15:07:50.084Z,80.30
2017-11-13T15:10:18.880Z,81.00
2017-11-13T15:12:48.536Z,80.80
2017-11-13T15:15:19.960Z,80.60
2017-11-13T15:17:49.897Z,81.00
2017-11-13T15:20:19.921Z,80.80
2017-11-13T15:22:47.920Z,80.90
2017-11-13T15:25:22.088Z,81.90
2017-11-13T15:27:50.992Z,81.80
2017-11-13T15:30:19.012Z,81.50
2017-11-13T15:32:47.028Z,81.70
2017-11-13T15:35:20.720Z,82.00
2017-11-13T15:37:49.716Z,82.70
2017-11-13T15:40:31.396Z,83.40
2017-11-13T15:43:00.308Z,82.80
2017-11-13T15:45:28.316Z,82.10
2017-11-13T15:48:02.185Z,82.50
2017-11-13T15:50:32.101Z,83.10
2017-11-13T15:53:01.016Z,83.90
2017-11-13T15:55:31.004Z,84.30
2017-11-13T15:57:59.020Z,84.40
2017-11-13T16:00:27.948Z,84.80
2017-11-13T16:02:57.876Z,84.30
2017-11-13T16:05:26.779Z,84.90
2017-11-13T16:07:54.797Z,85.50
2017-11-13T16:10:22.839Z,85.90
2017-11-13T16:12:51.620Z,86.10
2017-11-13T16:15:20.400Z,86.00
2017-11-13T16:17:49.375Z,86.00
2017-11-13T16:20:22.452Z,86.00
2017-11-13T16:22:51.451Z,86.10
2017-11-13T16:25:22.896Z,86.10
2017-11-13T16:27:55.195Z,86.20
2017-11-13T16:30:23.231Z,86.30
2017-11-13T16:32:58.806Z,86.50
2017-11-13T16:35:27.807Z,86.50
2017-11-13T16:37:56.796Z,86.70
2017-11-13T16:40:25.603Z,86.70
2017-11-13T16:42:54.395Z,86.60
2017-11-13T16:45:23.315Z,86.60
2017-11-13T16:47:51.376Z,86.60
2017-11-13T16:50:21.315Z,86.50
2017-11-13T16:52:49.343Z,86.50
2017-11-13T16:55:29.119Z,86.60
2017-11-13T16:58:04.856Z,86.50
2017-11-13T17:00:36.612Z,86.60
2017-11-13T17:03:08.447Z,86.50
2017-11-13T17:05:37.410Z,86.40
2017-11-13T17:08:07.019Z,86.30
2017-11-13T17:10:35.044Z,86.40
2017-11-13T17:13:04.095Z,86.30
2017-11-13T17:15:32.882Z,86.20
2017-11-13T17:18:01.671Z,86.00
2017-11-13T17:20:30.474Z,86.00
2017-11-13T17:23:04.991Z,86.00
2017-11-13T17:25:33.027Z,86.10
2017-11-13T17:28:02.942Z,86.20
2017-11-13T17:30:33.887Z,86.20
2017-11-13T17:33:01.911Z,86.20
2017-11-13T17:35:31.848Z,86.20
2017-11-13T17:38:04.535Z,86.30
2017-11-13T17:40:34.550Z,86.30
2017-11-13T17:43:03.555Z,86.80
2017-11-13T17:45:35.823Z,86.10
2017-11-13T17:48:04.823Z,86.10
2017-11-13T17:50:36.574Z,86.10
2017-11-13T17:53:07.482Z,86.30
2017-11-13T17:55:35.502Z,86.30
2017-11-13T17:58:04.286Z,86.30
2017-11-13T18:00:37.806Z,86.20
2017-11-13T18:03:09.334Z,86.20
2017-11-13T18:05:38.134Z,86.40
2017-11-13T18:08:09.043Z,86.40
2017-11-13T18:10:37.046Z,86.30
2017-11-13T18:13:05.994Z,86.20
2017-11-13T18:15:36.008Z,86.10
2017-11-13T18:18:07.050Z,86.10
2017-11-13T18:20:35.071Z,86.20
2017-11-13T18:23:03.126Z,86.30
2017-11-13T18:25:32.090Z,86.40
2017-11-13T18:28:04.550Z,86.40
2017-11-13T18:30:34.582Z,86.40
2017-11-13T18:33:07.359Z,86.40
2017-11-13T18:35:36.362Z,86.20
2017-11-13T18:38:11.674Z,85.90
2017-11-13T18:40:39.699Z,85.60
2017-11-13T18:43:07.743Z,85.30
2017-11-13T18:45:36.706Z,85.10
2017-11-13T18:48:07.699Z,84.70
2017-11-13T18:50:38.806Z,84.70
2017-11-13T18:53:06.883Z,84.70
2017-11-13T18:55:34.923Z,84.50
2017-11-13T18:58:05.937Z,84.60
2017-11-13T19:00:38.618Z,83.60
2017-11-13T19:03:08.614Z,83.30
2017-11-13T19:05:36.734Z,83.30
2017-11-13T19:08:06.834Z,83.20
2017-11-13T19:10:35.905Z,83.50
2017-11-13T19:13:04.881Z,83.60
2017-11-13T19:15:34.804Z,83.70
2017-11-13T19:18:06.750Z,83.40
2017-11-13T19:20:35.557Z,83.60
2017-11-13T19:23:06.669Z,83.50
2017-11-13T19:25:36.593Z,84.00
2017-11-13T19:28:05.401Z,85.80
2017-11-13T19:30:38.115Z,85.70
2017-11-13T19:33:07.074Z,85.70
2017-11-13T19:35:37.006Z,87.10
2017-11-13T19:38:06.963Z,86.90
2017-11-13T19:40:34.993Z,87.50
2017-11-13T19:43:04.949Z,87.30
2017-11-13T19:45:37.325Z,87.70
2017-11-13T19:48:05.350Z,88.00
2017-11-13T19:50:34.405Z,87.00
2017-11-13T19:53:05.085Z,87.40
2017-11-13T19:55:39.692Z,87.30
2017-11-13T19:58:08.506Z,87.10
2017-11-13T20:00:39.669Z,87.00
2017-11-13T20:03:08.689Z,86.50
2017-11-13T20:05:37.665Z,85.50
2017-11-13T20:08:05.695Z,85.20
2017-11-13T20:10:34.757Z,85.70
2017-11-13T20:13:03.564Z,85.80
2017-11-13T20:15:35.478Z,85.80
2017-11-13T20:18:07.526Z,85.60
2017-11-13T20:20:35.585Z,85.00
2017-11-13T20:23:03.606Z,85.30
2017-11-13T20:25:32.577Z,85.70
2017-11-13T20:28:02.589Z,86.00
2017-11-13T20:30:31.377Z,86.80
2017-11-13T20:33:00.181Z,86.20
2017-11-13T20:35:29.017Z,86.20
2017-11-13T20:37:59.808Z,86.30
2017-11-13T20:40:29.616Z,86.30
2017-11-13T20:42:57.657Z,86.30
2017-11-13T20:45:25.708Z,86.20
2017-11-13T20:47:53.745Z,86.00
2017-11-13T20:50:21.789Z,86.00
2017-11-13T20:52:51.577Z,86.30
2017-11-13T20:55:20.598Z,86.40
2017-11-13T20:57:53.773Z,85.90
2017-11-13T21:00:22.589Z,85.60
2017-11-13T21:02:50.621Z,85.80
2017-11-13T21:05:18.653Z,84.80
2017-11-13T21:07:51.244Z,84.20
2017-11-13T21:10:19.284Z,83.60
2017-11-13T21:12:52.561Z,83.10
2017-11-13T21:15:21.516Z,82.70
2017-11-13T21:17:50.445Z,82.60
2017-11-13T21:20:19.577Z,82.50
2017-11-13T21:22:47.620Z,83.00
2017-11-13T21:25:15.665Z,82.90
2017-11-13T21:27:44.492Z,83.00
2017-11-13T21:30:12.528Z,82.90
2017-11-13T21:32:43.240Z,83.10
2017-11-13T21:35:11.284Z,83.00
2017-11-13T21:37:39.333Z,83.10
2017-11-13T21:40:07.396Z,82.70
2017-11-13T21:42:36.353Z,82.90
2017-11-13T21:45:06.062Z,84.20
2017-11-13T21:47:35.877Z,84.40
2017-11-13T21:50:05.705Z,84.40
2017-11-13T21:52:39.220Z,84.20
2017-11-13T21:55:07.268Z,83.60
2017-11-13T21:57:35.304Z,82.70
2017-11-13T22:00:03.349Z,82.60
2017-11-13T22:02:32.369Z,82.70
2017-11-13T22:05:04.141Z,83.50
2017-11-13T22:07:33.056Z,84.40
2017-11-13T22:10:01.088Z,86.00
2017-11-13T22:12:30.065Z,86.50
2017-11-13T22:14:58.097Z,86.00
2017-11-13T22:17:27.044Z,84.90
2017-11-13T22:19:55.097Z,84.10
2017-11-13T22:22:25.129Z,84.50
2017-11-13T22:24:55.176Z,83.90
2017-11-13T22:27:23.221Z,82.90
2017-11-13T22:29:51.249Z,82.50
2017-11-13T22:32:20.063Z,82.50
2017-11-13T22:34:48.094Z,82.50
2017-11-13T22:37:16.133Z,83.30
2017-11-13T22:39:46.932Z,84.50
2017-11-13T22:42:15.937Z,84.50
2017-11-13T22:44:44.945Z,84.80
2017-11-13T22:47:13.764Z,83.00
2017-11-13T22:49:41.816Z,82.90
2017-11-13T22:52:10.638Z,81.70
2017-11-13T22:54:38.657Z,81.60
2017-11-13T22:57:07.652Z,81.70
2017-11-13T22:59:36.489Z,83.10
2017-11-13T23:02:04.534Z,83.00
2017-11-13T23:04:33.369Z,84.00
2017-11-13T23:07:03.442Z,84.00
2017-11-13T23:09:37.297Z,84.60
2017-11-13T23:12:05.346Z,84.70
2017-11-13T23:14:37.224Z,85.10
2017-11-13T23:17:06.041Z,85.10
2017-11-13T23:19:34.841Z,84.80
2017-11-13T23:22:03.992Z,84.70
2017-11-13T23:24:36.188Z,84.70
2017-11-13T23:27:05.217Z,84.70
2017-11-13T23:29:33.256Z,84.10
2017-11-13T23:32:03.264Z,84.20
2017-11-13T23:34:31.308Z,84.60
2017-11-13T23:37:00.120Z,83.80
2017-11-13T23:39:34.308Z,83.90
2017-11-13T23:42:05.620Z,83.80
2017-11-13T23:44:33.701Z,83.20
2017-11-13T23:47:01.724Z,84.20
2017-11-13T23:49:32.496Z,85.00
2017-11-13T23:52:05.436Z,84.90
2017-11-13T23:54:37.396Z,85.10
2017-11-13T23:57:05.447Z,85.20
2017-11-13T23:59:33.467Z,85.00
